Time;durP1;ratioP1;P1;durP2;ratioP2;P2;SDS_P1;SDS_P2;PMS_P1;PMS_P2;Temp;Humidity;BMP_temperature;BMP_pressure;BME280_temperature;BME280_humidity;BME280_pressure;Samples;Min_cycle;Max_cycle;Signal;HPM_P1;HPM_P2
2022/01/19 00:00:18;;;;;;;11.95;4.20;;;;;;;;;;5074653;28;20021;-66
2022/01/19 00:02:45;;;;;;;10.63;4.15;;;;;;;;;;5074320;28;20036;-66
2022/01/19 00:05:11;;;;;;;9.90;3.78;;;;;;;;;;5074581;28;20025;-66
2022/01/19 00:07:38;;;;;;;12.07;4.10;;;;;;;;;;5074685;28;20090;-66
2022/01/19 00:10:08;;;;;;;11.75;4.60;;;;;;;;;;5074567;28;20046;-66
2022/01/19 00:12:34;;;;;;;10.25;3.80;;;;;;;;;;5072781;28;20024;-67
2022/01/19 00:15:01;;;;;;;11.38;3.75;;;;;;;;;;5074161;28;20021;-66
2022/01/19 00:17:27;;;;;;;15.27;4.22;;;;;;;;;;5073260;28;20424;-67
2022/01/19 00:19:53;;;;;;;14.35;4.68;;;;;;;;;;5074335;28;20049;-63
2022/01/19 00:22:19;;;;;;;10.35;4.20;;;;;;;;;;5074228;28;20028;-63
2022/01/19 00:24:45;;;;;;;12.23;4.05;;;;;;;;;;5072835;28;20020;-64
2022/01/19 00:27:11;;;;;;;11.95;4.95;;;;;;;;;;5074239;28;20024;-66
2022/01/19 00:29:38;;;;;;;13.98;4.45;;;;;;;;;;5074309;28;20030;-66
2022/01/19 00:32:04;;;;;;;10.18;3.67;;;;;;;;;;5068563;28;20025;-62
2022/01/19 00:34:30;;;;;;;13.35;4.35;;;;;;;;;;5052720;28;20025;-65
2022/01/19 00:36:56;;;;;;;11.88;4.28;;;;;;;;;;5054165;28;20025;-65
2022/01/19 00:39:24;;;;;;;11.93;3.50;;;;;;;;;;5054163;28;20025;-65
2022/01/19 00:41:50;;;;;;;12.07;4.47;;;;;;;;;;5052702;28;20047;-65
2022/01/19 00:44:16;;;;;;;9.15;3.65;;;;;;;;;;5053787;28;20021;-65
2022/01/19 00:46:42;;;;;;;13.88;4.05;;;;;;;;;;5053884;28;20021;-63
2022/01/19 00:49:09;;;;;;;12.70;3.63;;;;;;;;;;5053766;28;20021;-65
2022/01/19 00:51:35;;;;;;;12.20;3.72;;;;;;;;;;5053982;28;20025;-64
2022/01/19 00:54:01;;;;;;;17.25;3.97;;;;;;;;;;5053757;28;20021;-65
2022/01/19 00:56:27;;;;;;;12.70;4.38;;;;;;;;;;5053651;28;20029;-66
2022/01/19 00:58:53;;;;;;;16.08;4.47;;;;;;;;;;5054684;28;20024;-66
2022/01/19 01:01:19;;;;;;;9.77;3.92;;;;;;;;;;5054905;28;20048;-61
2022/01/19 01:03:45;;;;;;;11.55;4.20;;;;;;;;;;5054090;28;20025;-66
2022/01/19 01:06:11;;;;;;;10.82;3.80;;;;;;;;;;5053431;28;20021;-65
2022/01/19 01:08:38;;;;;;;11.98;3.95;;;;;;;;;;5053758;28;20025;-66
2022/01/19 01:11:04;;;;;;;11.38;4.53;;;;;;;;;;5052281;28;20029;-65
2022/01/19 01:15:25;;;;;;;10.85;4.03;;;;;;;;;;5053361;28;20213;-65
2022/01/19 01:16:32;;;;;;;13.35;4.03;;;;;;;;;;5053221;28;20025;-68
2022/01/19 01:18:58;;;;;;;13.40;4.20;;;;;;;;;;5053219;28;20091;-65
2022/01/19 01:21:24;;;;;;;17.02;3.85;;;;;;;;;;5053157;28;20035;-66
2022/01/19 01:23:50;;;;;;;10.38;3.97;;;;;;;;;;5053025;28;20507;-65
2022/01/19 01:26:17;;;;;;;10.98;3.92;;;;;;;;;;5053256;28;20048;-66
2022/01/19 01:28:43;;;;;;;10.27;3.75;;;;;;;;;;5053112;28;20060;-65
2022/01/19 01:31:09;;;;;;;10.60;3.58;;;;;;;;;;5053234;28;20075;-66
2022/01/19 01:33:36;;;;;;;11.57;4.05;;;;;;;;;;5053174;28;20056;-65
2022/01/19 01:36:03;;;;;;;10.02;3.13;;;;;;;;;;5053066;28;20025;-65
2022/01/19 01:38:29;;;;;;;9.80;3.60;;;;;;;;;;5053147;28;20078;-62
2022/01/19 01:40:55;;;;;;;10.60;4.10;;;;;;;;;;5052929;28;20032;-66
2022/01/19 01:43:21;;;;;;;12.13;4.07;;;;;;;;;;5052783;28;20025;-64
2022/01/19 01:45:52;;;;;;;8.52;3.33;;;;;;;;;;5052891;28;20025;-63
2022/01/19 01:48:21;;;;;;;11.05;3.95;;;;;;;;;;5050689;28;20017;-64
2022/01/19 01:53:33;;;;;;;11.07;4.03;;;;;;;;;;5053043;28;20044;-65
2022/01/19 01:56:07;;;;;;;11.45;4.50;;;;;;;;;;5052729;28;20537;-63
2022/01/19 01:58:35;;;;;;;12.30;4.70;;;;;;;;;;5052791;28;20135;-63
2022/01/19 02:01:01;;;;;;;8.73;3.95;;;;;;;;;;5052501;28;20432;-62
2022/01/19 02:03:28;;;;;;;10.60;4.18;;;;;;;;;;5052335;28;20050;-65
2022/01/19 02:08:23;;;;;;;14.07;4.43;;;;;;;;;;5044287;28;20037;-65
2022/01/19 02:21:46;;;;;;;10.25;3.40;;;;;;;;;;5032378;28;20572;-65
2022/01/19 02:24:17;;;;;;;8.43;3.63;;;;;;;;;;5032243;28;20049;-64
2022/01/19 02:40:18;;;;;;;10.38;3.78;;;;;;;;;;5051829;28;20090;-64
2022/01/19 02:50:56;;;;;;;8.25;3.55;;;;;;;;;;5029311;28;20049;-67
2022/01/19 02:53:22;;;;;;;8.75;3.35;;;;;;;;;;5046937;28;20041;-67
2022/01/19 02:55:48;;;;;;;10.95;3.30;;;;;;;;;;5051613;28;20028;-65
2022/01/19 02:58:18;;;;;;;11.43;3.85;;;;;;;;;;5051591;28;20053;-67
2022/01/19 03:08:59;;;;;;;9.35;4.03;;;;;;;;;;5051723;28;20492;-67
2022/01/19 03:11:25;;;;;;;7.97;3.13;;;;;;;;;;5051666;28;20171;-68
2022/01/19 03:13:51;;;;;;;8.30;3.22;;;;;;;;;;5051474;28;20519;-67
2022/01/19 03:16:21;;;;;;;9.63;4.15;;;;;;;;;;5049855;28;20091;-63
2022/01/19 03:18:48;;;;;;;9.70;3.28;;;;;;;;;;5051074;28;20065;-65
2022/01/19 03:21:15;;;;;;;10.32;3.97;;;;;;;;;;5051284;28;20026;-65
2022/01/19 03:23:41;;;;;;;10.48;3.63;;;;;;;;;;5050217;28;20039;-66
2022/01/19 03:26:07;;;;;;;11.27;3.78;;;;;;;;;;5051392;28;20029;-67
2022/01/19 03:28:34;;;;;;;8.50;3.42;;;;;;;;;;5051946;28;20104;-63
2022/01/19 03:31:01;;;;;;;9.15;3.85;;;;;;;;;;5055407;28;20547;-66
2022/01/19 03:33:28;;;;;;;9.43;3.60;;;;;;;;;;5055273;28;20468;-67
2022/01/19 03:35:54;;;;;;;11.18;4.13;;;;;;;;;;5055267;28;20025;-67
2022/01/19 03:38:20;;;;;;;9.65;3.78;;;;;;;;;;5055319;28;20032;-67
2022/01/19 03:40:46;;;;;;;9.10;4.15;;;;;;;;;;5055209;28;20035;-67
2022/01/19 03:43:12;;;;;;;9.25;3.55;;;;;;;;;;5055222;28;20594;-67
2022/01/19 03:45:39;;;;;;;10.57;3.50;;;;;;;;;;5055208;28;20021;-65
2022/01/19 03:48:21;;;;;;;12.55;3.72;;;;;;;;;;5055044;28;20025;-67
2022/01/19 03:50:47;;;;;;;9.45;3.88;;;;;;;;;;5055110;28;20018;-66
2022/01/19 03:53:14;;;;;;;12.77;4.40;;;;;;;;;;5055075;28;20105;-67
2022/01/19 03:55:40;;;;;;;8.80;3.85;;;;;;;;;;5055178;28;20028;-67
2022/01/19 03:58:06;;;;;;;37.22;4.53;;;;;;;;;;5054962;28;20108;-61
2022/01/19 04:00:35;;;;;;;8.95;3.80;;;;;;;;;;5054984;28;20053;-65
2022/01/19 04:03:04;;;;;;;9.00;4.05;;;;;;;;;;5053252;28;20033;-64
2022/01/19 04:08:14;;;;;;;11.10;4.05;;;;;;;;;;5054580;28;20132;-65
2022/01/19 04:10:41;;;;;;;9.90;4.03;;;;;;;;;;5054581;28;20031;-66
2022/01/19 04:13:33;;;;;;;9.05;4.03;;;;;;;;;;5054566;28;20033;-66
2022/01/19 04:15:55;;;;;;;10.02;4.10;;;;;;;;;;5054688;28;20032;-65
2022/01/19 04:18:22;;;;;;;9.55;4.00;;;;;;;;;;5054458;28;20045;-66
2022/01/19 04:20:51;;;;;;;11.60;3.90;;;;;;;;;;5054374;28;20021;-66
2022/01/19 04:23:19;;;;;;;10.43;3.83;;;;;;;;;;5054533;28;20047;-62
2022/01/19 04:25:45;;;;;;;8.57;3.38;;;;;;;;;;5054390;28;20017;-66
2022/01/19 04:28:12;;;;;;;9.93;3.67;;;;;;;;;;5054375;28;20031;-66
2022/01/19 04:30:38;;;;;;;14.73;4.05;;;;;;;;;;5054520;28;20039;-64
2022/01/19 04:33:18;;;;;;;9.65;4.00;;;;;;;;;;5054239;28;20032;-66
2022/01/19 04:35:48;;;;;;;11.50;4.25;;;;;;;;;;5054179;28;20055;-65
2022/01/19 04:39:01;;;;;;;10.02;4.20;;;;;;;;;;5054181;28;20033;-64
2022/01/19 05:05:22;;;;;;;10.63;4.30;;;;;;;;;;5053991;28;20468;-66
2022/01/19 05:15:37;;;;;;;10.70;3.88;;;;;;;;;;5053585;28;20036;-64
2022/01/19 05:18:04;;;;;;;9.52;3.72;;;;;;;;;;5036278;28;20034;-66
2022/01/19 05:20:30;;;;;;;13.05;4.82;;;;;;;;;;5033558;28;20044;-64
2022/01/19 05:22:56;;;;;;;11.32;4.50;;;;;;;;;;5033391;28;20034;-66
2022/01/19 05:25:22;;;;;;;10.55;3.85;;;;;;;;;;5033303;28;20053;-66
2022/01/19 05:27:48;;;;;;;11.65;4.60;;;;;;;;;;5033426;28;20394;-67
2022/01/19 05:30:17;;;;;;;12.48;4.95;;;;;;;;;;5033179;28;20022;-66
2022/01/19 05:32:43;;;;;;;12.13;4.43;;;;;;;;;;5033078;28;20029;-64
2022/01/19 05:35:09;;;;;;;11.15;4.53;;;;;;;;;;5033082;28;20470;-65
2022/01/19 05:37:36;;;;;;;10.70;4.20;;;;;;;;;;5033140;28;20052;-66
2022/01/19 05:40:07;;;;;;;13.18;5.47;;;;;;;;;;5033042;28;20020;-65
2022/01/19 05:42:33;;;;;;;11.40;4.18;;;;;;;;;;5032904;28;20049;-66
2022/01/19 05:44:59;;;;;;;11.20;4.35;;;;;;;;;;5032983;28;20021;-63
2022/01/19 05:47:25;;;;;;;10.75;4.22;;;;;;;;;;5033068;28;20029;-66
2022/01/19 05:49:52;;;;;;;12.48;4.57;;;;;;;;;;5032894;28;20471;-66
2022/01/19 05:52:19;;;;;;;12.77;4.53;;;;;;;;;;5031745;28;20025;-66
2022/01/19 05:54:45;;;;;;;10.70;4.10;;;;;;;;;;5032499;28;20048;-63
2022/01/19 05:57:11;;;;;;;9.20;4.20;;;;;;;;;;5032528;28;20028;-66
2022/01/19 05:59:38;;;;;;;12.13;4.35;;;;;;;;;;5032552;28;20035;-64
2022/01/19 06:02:04;;;;;;;11.40;4.38;;;;;;;;;;5032519;28;20546;-67
2022/01/19 06:04:30;;;;;;;11.02;4.80;;;;;;;;;;5032567;28;20033;-66
2022/01/19 06:06:56;;;;;;;10.32;4.20;;;;;;;;;;5032662;28;20036;-67
2022/01/19 06:11:58;;;;;;;11.73;4.50;;;;;;;;;;5032537;28;20021;-66
2022/01/19 06:14:24;;;;;;;10.57;4.13;;;;;;;;;;5032349;28;20033;-65
2022/01/19 06:16:50;;;;;;;10.90;4.20;;;;;;;;;;5032161;28;20029;-66
2022/01/19 06:19:19;;;;;;;13.75;5.18;;;;;;;;;;5032041;28;20069;-64
2022/01/19 06:21:45;;;;;;;11.70;4.72;;;;;;;;;;5031954;28;20120;-67
2022/01/19 06:24:11;;;;;;;12.00;4.03;;;;;;;;;;5032025;28;20021;-65
2022/01/19 06:26:38;;;;;;;10.65;4.93;;;;;;;;;;5032171;28;20084;-65
2022/01/19 06:29:05;;;;;;;12.30;4.63;;;;;;;;;;5032231;28;20018;-65
2022/01/19 06:31:31;;;;;;;13.05;4.68;;;;;;;;;;5032196;28;20022;-66
2022/01/19 06:33:57;;;;;;;12.60;4.63;;;;;;;;;;5031859;28;20060;-65
2022/01/19 06:36:23;;;;;;;11.45;5.13;;;;;;;;;;5031838;28;20047;-62
2022/01/19 06:38:50;;;;;;;12.52;4.88;;;;;;;;;;5031919;28;20022;-65
2022/01/19 06:41:16;;;;;;;12.35;4.75;;;;;;;;;;5031845;28;20030;-66
2022/01/19 06:43:42;;;;;;;11.85;5.03;;;;;;;;;;5031889;28;20033;-67
2022/01/19 06:46:08;;;;;;;9.57;4.15;;;;;;;;;;5031801;28;20018;-65
2022/01/19 06:48:34;;;;;;;11.15;4.57;;;;;;;;;;5031889;28;20079;-64
2022/01/19 06:51:00;;;;;;;12.25;5.20;;;;;;;;;;5031700;28;20032;-63
2022/01/19 06:53:26;;;;;;;13.50;5.15;;;;;;;;;;5031706;28;20440;-66
2022/01/19 06:55:54;;;;;;;11.52;5.30;;;;;;;;;;5031899;28;20026;-65
2022/01/19 06:58:20;;;;;;;10.13;4.30;;;;;;;;;;5031780;28;20025;-63
2022/01/19 07:00:46;;;;;;;12.88;4.88;;;;;;;;;;5031684;28;20100;-65
2022/01/19 07:03:13;;;;;;;12.07;5.40;;;;;;;;;;5031381;28;20472;-65
2022/01/19 07:05:40;;;;;;;13.75;5.38;;;;;;;;;;5031458;28;20078;-66
2022/01/19 07:08:06;;;;;;;11.63;4.70;;;;;;;;;;5031422;28;20024;-65
2022/01/19 07:10:32;;;;;;;13.43;5.50;;;;;;;;;;5030165;28;20030;-64
2022/01/19 07:12:59;;;;;;;10.85;4.40;;;;;;;;;;5031583;28;20147;-62
2022/01/19 07:15:25;;;;;;;9.85;4.47;;;;;;;;;;5032066;28;20032;-66
2022/01/19 07:17:51;;;;;;;15.00;5.53;;;;;;;;;;5031456;28;20042;-65
2022/01/19 07:20:17;;;;;;;9.93;4.35;;;;;;;;;;5031513;28;20026;-63
2022/01/19 07:22:43;;;;;;;12.70;5.63;;;;;;;;;;5031467;28;20033;-67
2022/01/19 07:25:10;;;;;;;12.80;5.32;;;;;;;;;;5031502;28;20057;-66
2022/01/19 07:27:36;;;;;;;16.40;5.88;;;;;;;;;;5031343;28;20048;-65
2022/01/19 07:30:04;;;;;;;12.10;4.97;;;;;;;;;;5031296;28;20144;-66
2022/01/19 07:32:34;;;;;;;14.13;5.57;;;;;;;;;;5031175;28;20021;-66
2022/01/19 07:35:00;;;;;;;10.80;4.82;;;;;;;;;;5031183;28;20562;-66
2022/01/19 07:37:26;;;;;;;12.63;5.60;;;;;;;;;;5031540;28;20020;-65
2022/01/19 07:39:52;;;;;;;13.30;5.03;;;;;;;;;;5031302;28;20022;-65
2022/01/19 07:42:18;;;;;;;9.07;4.63;;;;;;;;;;5031048;28;20120;-64
2022/01/19 07:44:44;;;;;;;12.77;5.28;;;;;;;;;;5063025;28;20025;-66
2022/01/19 07:47:10;;;;;;;15.88;5.93;;;;;;;;;;5031110;28;20072;-64
2022/01/19 07:49:36;;;;;;;12.68;5.47;;;;;;;;;;5039091;28;20022;-66
2022/01/19 07:52:02;;;;;;;11.93;5.38;;;;;;;;;;5049739;28;20507;-66
2022/01/19 07:54:28;;;;;;;10.65;4.80;;;;;;;;;;5049931;28;20021;-61
2022/01/19 07:56:55;;;;;;;11.80;5.78;;;;;;;;;;5051096;28;20017;-64
2022/01/19 07:59:21;;;;;;;15.68;6.00;;;;;;;;;;5051083;28;20029;-65
2022/01/19 08:01:47;;;;;;;13.45;5.78;;;;;;;;;;5050729;28;20039;-66
2022/01/19 08:04:13;;;;;;;10.68;5.32;;;;;;;;;;5050137;28;20025;-65
2022/01/19 08:06:39;;;;;;;14.70;5.22;;;;;;;;;;5050770;28;20021;-63
2022/01/19 08:09:07;;;;;;;15.57;5.65;;;;;;;;;;5050889;28;20025;-66
2022/01/19 08:11:33;;;;;;;12.93;6.07;;;;;;;;;;5050849;28;20025;-65
2022/01/19 08:13:59;;;;;;;13.93;5.40;;;;;;;;;;5050976;28;20104;-62
2022/01/19 08:16:26;;;;;;;12.75;5.68;;;;;;;;;;5054007;28;20021;-64
2022/01/19 08:18:52;;;;;;;16.02;6.30;;;;;;;;;;5054322;28;20064;-64
2022/01/19 08:21:18;;;;;;;14.13;6.07;;;;;;;;;;5054366;28;20029;-66
2022/01/19 08:23:44;;;;;;;14.35;6.07;;;;;;;;;;5054263;28;20028;-63
2022/01/19 08:26:13;;;;;;;14.30;5.80;;;;;;;;;;5054444;28;20041;-66
2022/01/19 08:28:39;;;;;;;12.43;6.22;;;;;;;;;;5054322;28;20036;-67
2022/01/19 08:31:05;;;;;;;15.70;5.95;;;;;;;;;;5053101;28;20025;-66
2022/01/19 08:33:31;;;;;;;11.85;5.13;;;;;;;;;;5054294;28;20027;-66
2022/01/19 08:35:57;;;;;;;12.65;5.60;;;;;;;;;;5052810;28;20044;-65
2022/01/19 08:38:23;;;;;;;18.33;5.95;;;;;;;;;;5053993;28;20024;-63
2022/01/19 08:40:50;;;;;;;12.63;5.97;;;;;;;;;;5054082;28;20021;-65
2022/01/19 08:43:16;;;;;;;14.52;5.63;;;;;;;;;;5053867;28;20439;-66
2022/01/19 08:45:42;;;;;;;13.55;6.43;;;;;;;;;;5054111;28;20427;-62
2022/01/19 08:48:08;;;;;;;13.10;5.60;;;;;;;;;;5053899;28;20029;-63
2022/01/19 08:50:35;;;;;;;15.65;5.95;;;;;;;;;;5053909;28;20229;-63
2022/01/19 08:53:01;;;;;;;20.02;6.15;;;;;;;;;;5053859;28;20025;-66
2022/01/19 08:55:28;;;;;;;13.77;5.90;;;;;;;;;;5053831;28;20025;-61
2022/01/19 08:57:54;;;;;;;18.98;5.45;;;;;;;;;;5053656;28;20100;-64
2022/01/19 09:00:21;;;;;;;37.70;5.82;;;;;;;;;;5053571;28;20025;-61
2022/01/19 09:02:47;;;;;;;18.25;6.22;;;;;;;;;;5052818;28;20033;-65
2022/01/19 09:05:13;;;;;;;19.95;6.13;;;;;;;;;;5050110;28;20411;-66
2022/01/19 09:07:40;;;;;;;15.00;5.75;;;;;;;;;;5044006;28;20234;-64
2022/01/19 09:10:07;;;;;;;13.13;5.32;;;;;;;;;;5033211;28;20104;-65
2022/01/19 09:12:34;;;;;;;17.65;6.07;;;;;;;;;;5045441;28;20680;-65
2022/01/19 09:15:00;;;;;;;17.17;6.60;;;;;;;;;;5052300;28;20079;-65
2022/01/19 09:17:26;;;;;;;15.18;5.75;;;;;;;;;;5053018;28;20029;-65
2022/01/19 09:19:52;;;;;;;14.15;6.10;;;;;;;;;;5051656;28;20408;-61
2022/01/19 09:22:18;;;;;;;15.23;6.05;;;;;;;;;;5052979;28;20040;-64
2022/01/19 09:24:44;;;;;;;15.88;6.15;;;;;;;;;;5040303;28;20022;-63
2022/01/19 09:27:11;;;;;;;15.20;6.18;;;;;;;;;;5032801;28;20022;-63
2022/01/19 09:29:42;;;;;;;14.35;5.65;;;;;;;;;;5036311;28;20041;-66
2022/01/19 09:32:10;;;;;;;14.10;6.20;;;;;;;;;;5045443;28;20542;-65
2022/01/19 09:34:36;;;;;;;22.05;6.88;;;;;;;;;;5052954;28;20020;-61
2022/01/19 09:37:02;;;;;;;15.35;6.43;;;;;;;;;;5033352;28;20472;-65
2022/01/19 09:39:28;;;;;;;12.70;5.63;;;;;;;;;;5032919;28;20029;-63
2022/01/19 09:41:55;;;;;;;13.35;5.95;;;;;;;;;;5032638;28;20033;-62
2022/01/19 09:44:22;;;;;;;13.35;6.25;;;;;;;;;;5031542;28;20061;-62
2022/01/19 09:46:49;;;;;;;12.73;5.63;;;;;;;;;;5032731;28;20431;-65
2022/01/19 09:49:17;;;;;;;13.55;5.82;;;;;;;;;;5052289;28;20021;-66
2022/01/19 09:51:44;;;;;;;14.90;6.15;;;;;;;;;;5052717;28;20032;-66
2022/01/19 09:54:13;;;;;;;14.05;7.05;;;;;;;;;;5052420;28;20021;-66
2022/01/19 09:56:39;;;;;;;14.13;6.45;;;;;;;;;;5034831;28;20025;-66
2022/01/19 09:59:06;;;;;;;15.07;6.07;;;;;;;;;;5052488;28;20148;-65
2022/01/19 10:01:32;;;;;;;17.23;7.88;;;;;;;;;;5063979;28;20556;-65
2022/01/19 10:03:58;;;;;;;13.90;6.18;;;;;;;;;;5072184;28;20031;-66
2022/01/19 10:06:24;;;;;;;14.57;6.55;;;;;;;;;;5072327;28;20082;-65
2022/01/19 10:08:57;;;;;;;18.80;7.25;;;;;;;;;;5072310;28;20032;-63
2022/01/19 10:16:58;;;;;;;18.17;7.63;;;;;;;;;;5072012;28;20199;-65
2022/01/19 10:17:00;;;;;;;16.10;7.28;;;;;;;;;;5071925;28;20684;-67
2022/01/19 10:19:26;;;;;;;15.13;6.35;;;;;;;;;;5070777;28;20049;-66
2022/01/19 10:22:02;;;;;;;15.48;5.97;;;;;;;;;;5071944;28;20040;-62
2022/01/19 10:24:52;;;;;;;15.85;6.60;;;;;;;;;;5062887;28;20040;-66
2022/01/19 10:27:26;;;;;;;11.85;5.80;;;;;;;;;;5049041;28;20032;-63
2022/01/19 10:29:54;;;;;;;14.50;6.32;;;;;;;;;;5051995;28;20037;-63
2022/01/19 10:32:22;;;;;;;17.92;6.07;;;;;;;;;;5051780;28;20465;-61
2022/01/19 10:34:48;;;;;;;13.88;6.25;;;;;;;;;;5051775;28;20464;-62
2022/01/19 10:37:14;;;;;;;16.58;6.50;;;;;;;;;;5050162;28;20051;-65
2022/01/19 10:39:42;;;;;;;14.82;6.50;;;;;;;;;;5051829;28;20487;-65
2022/01/19 10:42:13;;;;;;;14.05;6.35;;;;;;;;;;5051549;28;20391;-65
2022/01/19 10:44:43;;;;;;;17.27;6.22;;;;;;;;;;5051624;28;20043;-65
2022/01/19 10:47:10;;;;;;;13.15;5.95;;;;;;;;;;5051763;28;20029;-66
2022/01/19 10:49:48;;;;;;;18.48;6.60;;;;;;;;;;5050541;28;20094;-66
2022/01/19 10:52:31;;;;;;;17.10;7.40;;;;;;;;;;5051520;28;20063;-62
2022/01/19 10:54:57;;;;;;;;;;;;;;;;;;5052098;28;20017;-62
2022/01/19 10:57:23;;;;;;;14.75;5.38;;;;;;;;;;5051518;28;20398;-62
2022/01/19 10:59:50;;;;;;;16.42;6.10;;;;;;;;;;5051564;28;20365;-65
2022/01/19 11:02:17;;;;;;;13.80;5.97;;;;;;;;;;5051399;28;20121;-66
2022/01/19 11:04:43;;;;;;;15.23;6.45;;;;;;;;;;5051566;28;20021;-66
2022/01/19 11:07:13;;;;;;;14.05;5.85;;;;;;;;;;5050294;28;20037;-61
2022/01/19 11:09:45;;;;;;;13.23;5.82;;;;;;;;;;5051513;28;20651;-66
2022/01/19 11:12:15;;;;;;;14.35;6.00;;;;;;;;;;5050106;28;20029;-67
2022/01/19 11:14:41;;;;;;;13.02;6.05;;;;;;;;;;5051342;28;20067;-64
2022/01/19 11:17:08;;;;;;;11.90;5.93;;;;;;;;;;5051421;28;20020;-67
2022/01/19 11:19:40;;;;;;;19.20;7.38;;;;;;;;;;5051261;28;20041;-63
2022/01/19 11:22:09;;;;;;;14.27;5.87;;;;;;;;;;5051178;28;20061;-65
2022/01/19 11:24:54;;;;;;;15.27;6.78;;;;;;;;;;5051153;28;20264;-65
2022/01/19 11:27:20;;;;;;;12.40;5.68;;;;;;;;;;5051211;28;20050;-65
2022/01/19 11:30:06;;;;;;;12.32;5.95;;;;;;;;;;5048329;28;20534;-65
2022/01/19 11:32:32;;;;;;;16.98;5.68;;;;;;;;;;5051230;28;20032;-65
2022/01/19 11:34:58;;;;;;;11.35;5.47;;;;;;;;;;5051269;28;20036;-65
2022/01/19 11:37:33;;;;;;;15.07;5.85;;;;;;;;;;5049712;28;20074;-66
2022/01/19 11:40:09;;;;;;;15.05;6.20;;;;;;;;;;5049934;28;20048;-67
2022/01/19 11:42:35;;;;;;;12.80;5.18;;;;;;;;;;5051121;28;20033;-67
2022/01/19 11:45:02;;;;;;;13.45;5.57;;;;;;;;;;5049909;28;20029;-67
2022/01/19 11:47:30;;;;;;;13.75;5.72;;;;;;;;;;5051160;28;20096;-67
2022/01/19 11:49:56;;;;;;;13.57;5.22;;;;;;;;;;5052340;28;20056;-67
2022/01/19 11:52:32;;;;;;;12.48;5.88;;;;;;;;;;5054971;28;20025;-68
2022/01/19 11:55:25;;;;;;;15.38;5.65;;;;;;;;;;5054620;28;20040;-67
2022/01/19 11:58:11;;;;;;;19.80;6.22;;;;;;;;;;5054037;28;20087;-67
2022/01/19 12:00:38;;;;;;;19.80;5.68;;;;;;;;;;5055100;28;20482;-67
2022/01/19 12:03:16;;;;;;;11.85;5.03;;;;;;;;;;5054870;28;20033;-67
2022/01/19 12:05:43;;;;;;;11.70;4.78;;;;;;;;;;5054695;28;20045;-65
2022/01/19 12:08:29;;;;;;;13.15;5.18;;;;;;;;;;5053414;28;20040;-67
2022/01/19 12:10:58;;;;;;;11.98;5.03;;;;;;;;;;5054502;28;20051;-66
2022/01/19 12:16:17;;;;;;;9.50;4.40;;;;;;;;;;5054691;28;20499;-67
2022/01/19 12:18:46;;;;;;;11.45;4.63;;;;;;;;;;5054390;28;20067;-67
2022/01/19 12:21:17;;;;;;;12.02;4.78;;;;;;;;;;5054199;28;20021;-68
2022/01/19 12:23:44;;;;;;;12.27;4.85;;;;;;;;;;5054306;28;20112;-65
2022/01/19 12:26:10;;;;;;;13.43;5.43;;;;;;;;;;5054141;28;20510;-67
2022/01/19 12:28:42;;;;;;;13.00;4.40;;;;;;;;;;5053569;28;20080;-64
2022/01/19 12:31:27;;;;;;;11.77;3.97;;;;;;;;;;5054191;28;20028;-66
2022/01/19 12:34:12;;;;;;;11.20;4.32;;;;;;;;;;5053555;28;20036;-63
2022/01/19 12:37:00;;;;;;;10.00;3.88;;;;;;;;;;5052527;28;20031;-62
2022/01/19 12:39:27;;;;;;;13.38;4.05;;;;;;;;;;5054036;28;20048;-62
2022/01/19 12:42:00;;;;;;;8.73;3.50;;;;;;;;;;5053161;28;20040;-67
2022/01/19 12:44:35;;;;;;;10.95;3.83;;;;;;;;;;5053983;28;20055;-68
2022/01/19 12:47:05;;;;;;;9.25;3.85;;;;;;;;;;5053998;28;20103;-67
2022/01/19 12:49:32;;;;;;;14.18;4.53;;;;;;;;;;5054157;28;20029;-64
2022/01/19 12:51:59;;;;;;;11.00;3.80;;;;;;;;;;5053928;28;20049;-64
2022/01/19 12:54:29;;;;;;;9.43;3.83;;;;;;;;;;5053816;28;20108;-66
2022/01/19 12:57:02;;;;;;;9.05;3.78;;;;;;;;;;5035763;28;20029;-67
2022/01/19 12:59:29;;;;;;;7.75;3.70;;;;;;;;;;5053334;28;20736;-67
2022/01/19 13:01:55;;;;;;;8.68;3.75;;;;;;;;;;5042419;28;20025;-67
2022/01/19 13:04:25;;;;;;;13.73;3.78;;;;;;;;;;5033549;28;20025;-63
2022/01/19 13:06:54;;;;;;;10.75;4.03;;;;;;;;;;5033428;28;20042;-66
2022/01/19 13:09:29;;;;;;;13.30;3.90;;;;;;;;;;5033342;28;20028;-66
2022/01/19 13:11:56;;;;;;;7.10;3.55;;;;;;;;;;5033945;28;20021;-67
2022/01/19 13:14:25;;;;;;;8.85;3.63;;;;;;;;;;5033226;28;20068;-67
2022/01/19 13:16:53;;;;;;;7.75;3.00;;;;;;;;;;5033299;28;20052;-67
2022/01/19 13:19:21;;;;;;;9.65;3.30;;;;;;;;;;5032938;28;20076;-65
2022/01/19 13:21:51;;;;;;;10.10;3.53;;;;;;;;;;5033076;28;20034;-64
2022/01/19 13:24:27;;;;;;;8.07;3.13;;;;;;;;;;5033093;28;20021;-65
2022/01/19 13:26:55;;;;;;;11.60;3.88;;;;;;;;;;5033030;28;20036;-66
2022/01/19 13:29:21;;;;;;;10.30;4.07;;;;;;;;;;5034110;28;20105;-66
2022/01/19 13:32:06;;;;;;;11.85;3.35;;;;;;;;;;5032885;28;20025;-63
2022/01/19 13:34:48;;;;;;;12.98;4.15;;;;;;;;;;5032906;28;20022;-67
2022/01/19 13:37:14;;;;;;;9.23;3.45;;;;;;;;;;5032859;28;20476;-67
2022/01/19 13:39:40;;;;;;;8.35;3.67;;;;;;;;;;5033086;28;20025;-67
2022/01/19 13:42:06;;;;;;;7.43;3.10;;;;;;;;;;5032767;28;20033;-66
2022/01/19 13:44:36;;;;;;;20.60;3.83;;;;;;;;;;5045863;28;20029;-67
2022/01/19 13:47:08;;;;;;;14.30;3.90;;;;;;;;;;5041021;28;20026;-68
2022/01/19 13:49:34;;;;;;;18.90;3.75;;;;;;;;;;5034051;28;20037;-67
2022/01/19 13:52:00;;;;;;;26.98;3.58;;;;;;;;;;5052451;28;20024;-67
2022/01/19 13:54:27;;;;;;;10.00;3.55;;;;;;;;;;5052527;28;20028;-68
2022/01/19 13:56:59;;;;;;;13.07;3.67;;;;;;;;;;5051049;28;20032;-67
2022/01/19 13:59:25;;;;;;;8.20;3.42;;;;;;;;;;5052500;28;20617;-68
2022/01/19 14:02:00;;;;;;;12.07;3.92;;;;;;;;;;5052240;28;20118;-67
2022/01/19 14:04:27;;;;;;;10.32;3.78;;;;;;;;;;5051563;28;20017;-67
2022/01/19 14:07:01;;;;;;;12.68;3.40;;;;;;;;;;5052292;28;20088;-67
2022/01/19 14:09:31;;;;;;;16.98;3.25;;;;;;;;;;5052385;28;20025;-67
2022/01/19 14:12:03;;;;;;;21.77;3.47;;;;;;;;;;5051900;28;20017;-69
2022/01/19 14:14:35;;;;;;;9.60;3.60;;;;;;;;;;5052123;28;20025;-67
2022/01/19 14:17:03;;;;;;;9.88;3.45;;;;;;;;;;5052273;28;20029;-67
2022/01/19 14:19:30;;;;;;;9.93;3.13;;;;;;;;;;5051860;28;20053;-68
2022/01/19 14:22:03;;;;;;;9.40;3.65;;;;;;;;;;5049916;28;20399;-68
2022/01/19 14:24:30;;;;;;;11.38;3.75;;;;;;;;;;5051963;28;20048;-68
2022/01/19 14:26:58;;;;;;;8.18;3.00;;;;;;;;;;5051868;28;20025;-69
2022/01/19 14:29:24;;;;;;;8.52;2.90;;;;;;;;;;5051813;28;20116;-68
2022/01/19 14:31:53;;;;;;;10.52;3.90;;;;;;;;;;5051762;28;20107;-69
2022/01/19 14:34:35;;;;;;;9.18;3.70;;;;;;;;;;5051579;28;20028;-67
2022/01/19 14:37:11;;;;;;;10.95;3.30;;;;;;;;;;5050895;28;20025;-66
2022/01/19 14:39:49;;;;;;;10.43;3.58;;;;;;;;;;5048103;28;20051;-66
2022/01/19 14:42:18;;;;;;;8.00;3.17;;;;;;;;;;5031591;28;20029;-65
2022/01/19 14:44:57;;;;;;;8.10;3.10;;;;;;;;;;5031985;28;20084;-65
2022/01/19 14:47:37;;;;;;;9.18;3.05;;;;;;;;;;5031833;28;20551;-65
2022/01/19 14:50:29;;;;;;;8.73;3.45;;;;;;;;;;5031483;28;20009;-67
2022/01/19 14:52:56;;;;;;;7.80;2.67;;;;;;;;;;5030504;28;20120;-67
2022/01/19 14:55:23;;;;;;;7.13;2.67;;;;;;;;;;5031765;28;20021;-66
2022/01/19 14:57:50;;;;;;;7.78;2.80;;;;;;;;;;5032169;28;20473;-63
2022/01/19 15:00:17;;;;;;;7.88;3.33;;;;;;;;;;5031222;28;20020;-65
2022/01/19 15:02:43;;;;;;;10.75;3.13;;;;;;;;;;5031625;28;20112;-66
2022/01/19 15:05:10;;;;;;;9.27;3.13;;;;;;;;;;5031613;28;20022;-62
2022/01/19 15:07:40;;;;;;;8.45;3.17;;;;;;;;;;5031602;28;20362;-62
2022/01/19 15:10:06;;;;;;;10.48;3.40;;;;;;;;;;5031376;28;20036;-64
2022/01/19 15:12:32;;;;;;;8.88;2.97;;;;;;;;;;5041323;28;20029;-68
2022/01/19 15:15:01;;;;;;;8.27;2.92;;;;;;;;;;5051308;28;20021;-61
2022/01/19 15:17:28;;;;;;;10.32;3.17;;;;;;;;;;5051366;28;20123;-61
2022/01/19 15:19:54;;;;;;;7.22;2.92;;;;;;;;;;5051135;28;20518;-66
2022/01/19 15:22:22;;;;;;;11.02;3.15;;;;;;;;;;5050025;28;20395;-65
2022/01/19 15:24:48;;;;;;;7.88;2.70;;;;;;;;;;5055963;28;20167;-61
2022/01/19 15:27:14;;;;;;;7.47;3.17;;;;;;;;;;5052748;28;20021;-67
2022/01/19 15:29:40;;;;;;;5.65;2.75;;;;;;;;;;5056220;28;20074;-66
2022/01/19 15:32:08;;;;;;;6.07;2.60;;;;;;;;;;5057765;28;20049;-67
2022/01/19 15:34:34;;;;;;;7.55;3.38;;;;;;;;;;5057967;28;20025;-66
2022/01/19 15:37:00;;;;;;;8.93;3.15;;;;;;;;;;5056532;28;20028;-67
2022/01/19 15:39:26;;;;;;;8.32;3.00;;;;;;;;;;5057741;28;20017;-64
2022/01/19 15:41:52;;;;;;;6.35;2.65;;;;;;;;;;5057570;28;20483;-62
2022/01/19 15:44:18;;;;;;;10.70;3.45;;;;;;;;;;5049427;28;20068;-67
2022/01/19 15:46:44;;;;;;;7.05;2.53;;;;;;;;;;5037660;28;20023;-66
2022/01/19 15:49:10;;;;;;;5.53;2.17;;;;;;;;;;5037524;28;20101;-66
2022/01/19 15:51:36;;;;;;;8.35;2.75;;;;;;;;;;5037522;28;20365;-62
2022/01/19 15:54:03;;;;;;;9.77;3.42;;;;;;;;;;5037797;28;20025;-63
2022/01/19 15:56:29;;;;;;;7.68;2.47;;;;;;;;;;5037698;28;20076;-63
2022/01/19 15:58:55;;;;;;;8.07;3.10;;;;;;;;;;5037625;28;20025;-66
2022/01/19 16:01:21;;;;;;;8.13;3.03;;;;;;;;;;5040266;28;20041;-66
2022/01/19 16:03:48;;;;;;;7.30;2.83;;;;;;;;;;5037630;28;20044;-67
2022/01/19 16:06:14;;;;;;;8.68;2.97;;;;;;;;;;5036319;28;20028;-67
2022/01/19 16:08:40;;;;;;;8.27;3.00;;;;;;;;;;5037673;28;20032;-64